Time;durP1;ratioP1;P1;durP2;ratioP2;P2;SDS_P1;SDS_P2;PMS_P1;PMS_P2;Temp;Humidity;BMP_temperature;BMP_pressure;BME280_temperature;BME280_humidity;BME280_pressure;Samples;Min_cycle;Max_cycle;Signal;HPM_P1;HPM_P2
2022/05/05 00:00:30;;;;;;;50.95;46.42;;;;;;;8.78;100.00;101420.13;5054285;28;20463;-82
2022/05/05 00:02:57;;;;;;;53.38;48.60;;;;;;;9.16;100.00;101428.91;5055372;28;20060;-83
2022/05/05 00:05:24;;;;;;;51.78;47.45;;;;;;;9.52;100.00;101430.06;5054181;28;20410;-83
2022/05/05 00:07:52;;;;;;;48.92;44.92;;;;;;;9.54;100.00;101430.72;5052084;28;20118;-85
2022/05/05 00:15:56;;;;;;;42.03;38.45;;;;;;;9.72;100.00;101439.16;5053216;28;20044;-82
2022/05/05 00:18:23;;;;;;;41.35;38.15;;;;;;;9.76;100.00;101436.94;5051239;28;20049;-84
2022/05/05 00:21:09;;;;;;;43.50;40.05;;;;;;;9.44;100.00;101438.09;5050885;28;20041;-82
2022/05/05 00:23:36;;;;;;;43.80;40.25;;;;;;;8.76;100.00;101438.00;5051810;28;20126;-84
2022/05/05 00:26:05;;;;;;;48.20;43.63;;;;;;;8.61;100.00;101437.94;5042793;28;20459;-82
2022/05/05 00:28:47;;;;;;;48.20;43.97;;;;;;;8.69;100.00;101439.72;5054142;28;20455;-81
2022/05/05 00:31:15;;;;;;;47.33;43.37;;;;;;;8.59;100.00;101426.69;5054000;28;20118;-83
2022/05/05 00:33:43;;;;;;;48.40;43.58;;;;;;;9.00;100.00;101438.81;5051909;28;20525;-81
2022/05/05 00:36:13;;;;;;;44.20;40.45;;;;;;;9.03;100.00;101449.06;5045904;28;20090;-81
2022/05/05 00:38:40;;;;;;;43.53;40.13;;;;;;;9.11;100.00;101451.66;5042148;28;20049;-82
2022/05/05 00:41:09;;;;;;;42.17;38.88;;;;;;;9.02;100.00;101464.16;5053679;28;20056;-82
2022/05/05 00:43:45;;;;;;;43.65;40.25;;;;;;;9.14;100.00;101465.38;5053627;28;20464;-82
2022/05/05 00:46:11;;;;;;;41.15;38.03;;;;;;;8.78;100.00;101462.50;5053742;28;20114;-82
2022/05/05 00:48:40;;;;;;;40.30;36.95;;;;;;;8.88;100.00;101456.97;5053683;28;20049;-82
2022/05/05 00:51:11;;;;;;;39.17;35.83;;;;;;;8.20;100.00;101464.59;5053300;28;20072;-82
2022/05/05 00:53:39;;;;;;;41.10;37.42;;;;;;;8.90;100.00;101454.97;5037064;28;20057;-82
2022/05/05 00:56:15;;;;;;;44.10;40.88;;;;;;;8.68;100.00;101454.78;5052440;28;20102;-83
2022/05/05 00:58:44;;;;;;;43.55;40.22;;;;;;;8.86;100.00;101457.13;5044960;28;20077;-81
2022/05/05 01:01:24;;;;;;;43.38;40.13;;;;;;;8.38;100.00;101458.22;5033725;28;20041;-83
2022/05/05 01:03:52;;;;;;;47.13;43.25;;;;;;;8.15;100.00;101476.69;5060693;28;20056;-81
2022/05/05 01:06:25;;;;;;;47.53;43.60;;;;;;;8.32;100.00;101469.50;5059190;28;20091;-82
2022/05/05 01:08:59;;;;;;;48.72;44.72;;;;;;;8.98;100.00;101468.13;5064305;28;20122;-82
2022/05/05 01:11:30;;;;;;;45.67;41.88;;;;;;;8.88;100.00;101463.09;5073316;28;20045;-81
2022/05/05 01:13:57;;;;;;;42.30;39.17;;;;;;;8.61;100.00;101461.75;5073382;28;20055;-82
2022/05/05 01:16:26;;;;;;;43.35;39.97;;;;;;;8.71;100.00;101459.72;5075641;28;20546;-83
2022/05/05 01:18:55;;;;;;;46.25;42.22;;;;;;;8.63;100.00;101462.44;5077644;28;20044;-82
2022/05/05 01:21:31;;;;;;;46.60;43.28;;;;;;;8.78;100.00;101456.38;5077000;28;20052;-82
2022/05/05 01:23:59;;;;;;;46.08;42.20;;;;;;;8.46;100.00;101452.91;5077320;28;20110;-82
2022/05/05 01:29:28;;;;;;;48.42;44.22;;;;;;;7.88;100.00;101456.78;4991245;28;20496;-81
2022/05/05 01:32:02;;;;;;;53.42;49.25;;;;;;;7.79;100.00;101451.50;4995877;28;20490;-82
2022/05/05 01:34:37;;;;;;;50.17;46.10;;;;;;;7.73;100.00;101452.19;4990277;28;20117;-83
2022/05/05 01:37:11;;;;;;;47.28;43.22;;;;;;;8.07;100.00;101464.31;4998027;28;20046;-84
2022/05/05 01:39:48;;;;;;;47.05;43.10;;;;;;;8.08;100.00;101459.84;4999451;28;20046;-82
2022/05/05 01:42:22;;;;;;;44.78;41.13;;;;;;;8.03;100.00;101463.00;4996167;28;20470;-83
2022/05/05 01:45:11;;;;;;;45.90;42.08;;;;;;;7.99;100.00;101462.53;4996230;28;20058;-82
2022/05/05 01:47:44;;;;;;;50.88;45.45;;;;;;;8.16;100.00;101470.41;5043417;28;20121;-82
2022/05/05 01:50:13;;;;;;;46.75;42.78;;;;;;;8.23;100.00;101460.78;5076719;28;20052;-83
2022/05/05 01:52:44;;;;;;;41.95;38.60;;;;;;;8.23;100.00;101469.56;5076619;28;20049;-81
2022/05/05 01:55:12;;;;;;;43.90;40.20;;;;;;;8.01;100.00;101470.28;5077066;28;20409;-83
2022/05/05 01:57:39;;;;;;;42.15;38.65;;;;;;;8.14;100.00;101472.38;5076623;28;20056;-82
2022/05/05 02:02:49;;;;;;;45.47;41.95;;;;;;;7.61;100.00;101487.09;5121115;22;20059;-82
2022/05/05 02:05:18;;;;;;;50.08;46.30;;;;;;;7.59;100.00;101484.59;5086099;28;20120;-82
2022/05/05 02:07:47;;;;;;;49.38;45.58;;;;;;;8.00;100.00;101484.50;5089736;28;20052;-81
2022/05/05 02:10:21;;;;;;;50.80;46.00;;;;;;;8.08;100.00;101484.50;5082959;28;20051;-82
2022/05/05 02:12:58;;;;;;;50.83;45.45;;;;;;;8.10;100.00;101481.66;5077300;28;20056;-82
2022/05/05 02:15:27;;;;;;;51.97;47.17;;;;;;;7.74;100.00;101482.09;5086372;28;20052;-83
2022/05/05 02:17:56;;;;;;;46.60;42.30;;;;;;;7.85;100.00;101483.56;5083500;28;20102;-83
2022/05/05 02:20:33;;;;;;;55.28;49.67;;;;;;;8.22;100.00;101490.88;5092039;28;20052;-83
2022/05/05 02:23:01;;;;;;;56.45;50.45;;;;;;;8.43;100.00;101480.56;5093890;28;20048;-84
2022/05/05 02:25:29;;;;;;;57.03;49.42;;;;;;;8.44;100.00;101486.66;5083452;28;20492;-82
2022/05/05 02:28:02;;;;;;;56.85;49.20;;;;;;;8.38;100.00;101482.91;5091369;28;20116;-82
2022/05/05 02:30:30;;;;;;;57.40;51.13;;;;;;;8.08;100.00;101491.59;5095113;28;20052;-86
2022/05/05 02:33:02;;;;;;;65.35;54.42;;;;;;;8.70;100.00;101492.50;5091544;28;20478;-83
2022/05/05 02:35:36;;;;;;;64.10;52.78;;;;;;;8.93;100.00;101492.53;5090850;28;20070;-82
2022/05/05 02:41:22;;;;;;;54.05;48.20;;;;;;;9.05;100.00;101486.81;5018292;28;20061;-83
2022/05/05 02:44:02;;;;;;;56.35;50.55;;;;;;;8.86;100.00;101496.88;5023388;28;20107;-82
2022/05/05 02:46:38;;;;;;;61.20;53.25;;;;;;;9.01;100.00;101507.53;5054336;28;20113;-82
2022/05/05 02:49:06;;;;;;;66.72;53.38;;;;;;;9.06;100.00;101501.72;5095975;28;20044;-82
2022/05/05 02:51:42;;;;;;;63.03;52.00;;;;;;;9.14;100.00;101504.31;5091534;28;20059;-83
2022/05/05 02:57:05;;;;;;;62.22;53.25;;;;;;;9.26;100.00;101512.66;5079283;28;20128;-82
2022/05/05 02:59:35;;;;;;;56.97;47.72;;;;;;;9.20;100.00;101510.72;5082652;28;20044;-80
2022/05/05 03:02:06;;;;;;;41.00;38.10;;;;;;;8.56;100.00;101508.28;5088991;28;20048;-82
2022/05/05 03:04:35;;;;;;;46.30;42.88;;;;;;;8.68;100.00;101515.69;5095859;28;20044;-82
2022/05/05 03:07:10;;;;;;;48.15;44.78;;;;;;;8.74;100.00;101508.84;5095547;28;20040;-82
2022/05/05 03:10:02;;;;;;;45.95;42.45;;;;;;;9.12;100.00;101509.78;5093529;28;20537;-82
2022/05/05 03:12:31;;;;;;;44.40;41.10;;;;;;;9.02;100.00;101524.28;5091648;28;20135;-81
2022/05/05 03:15:18;;;;;;;43.17;39.92;;;;;;;9.20;100.00;101516.00;5093891;28;20109;-81
2022/05/05 03:17:50;;;;;;;45.45;42.35;;;;;;;9.35;100.00;101515.09;5093036;28;20434;-80
2022/05/05 03:20:25;;;;;;;39.05;36.40;;;;;;;9.36;100.00;101526.50;5092043;28;20090;-81
2022/05/05 03:23:00;;;;;;;42.47;39.65;;;;;;;9.33;100.00;101529.50;5091296;28;20070;-80
2022/05/05 03:25:30;;;;;;;47.47;43.88;;;;;;;9.05;100.00;101530.03;5093749;28;20059;-81
2022/05/05 03:27:57;;;;;;;56.60;52.05;;;;;;;9.08;100.00;101532.34;5091843;28;20059;-80
2022/05/05 03:30:25;;;;;;;52.17;47.78;;;;;;;8.64;100.00;101535.56;5088148;28;20059;-81
2022/05/05 03:33:04;;;;;;;52.35;47.08;;;;;;;9.16;100.00;101542.88;5085058;28;20056;-82
2022/05/05 03:35:33;;;;;;;55.35;50.05;;;;;;;8.99;100.00;101559.91;5087975;28;20399;-82
2022/05/05 03:38:00;;;;;;;52.30;47.40;;;;;;;9.07;100.00;101567.78;5094152;28;21019;-81
2022/05/05 03:40:35;;;;;;;51.75;46.88;;;;;;;9.37;100.00;101562.63;5095094;28;20104;-82
2022/05/05 03:43:03;;;;;;;56.33;50.22;;;;;;;9.39;100.00;101579.19;5090063;28;20400;-80
2022/05/05 03:45:30;;;;;;;55.67;49.03;;;;;;;9.35;100.00;101573.41;5079791;28;20048;-79
2022/05/05 03:48:04;;;;;;;57.70;50.22;;;;;;;9.16;100.00;101579.16;5089760;28;20048;-79
2022/05/05 03:50:31;;;;;;;53.30;46.45;;;;;;;9.51;100.00;101580.41;5086205;28;20048;-78
2022/05/05 03:52:57;;;;;;;54.30;48.50;;;;;;;9.53;100.00;101575.75;5081886;28;20475;-79
2022/05/05 03:55:29;;;;;;;52.63;45.85;;;;;;;9.57;100.00;101581.53;5087990;28;20057;-80
2022/05/05 03:57:57;;;;;;;63.93;57.33;;;;;;;9.72;100.00;101582.41;5085474;28;20070;-80
2022/05/05 04:00:25;;;;;;;64.28;58.28;;;;;;;9.79;100.00;101588.63;5079965;28;20125;-80
2022/05/05 04:05:33;;;;;;;66.90;61.70;;;;;;;9.91;100.00;101602.28;5079965;28;20040;-79
2022/05/05 04:08:00;;;;;;;43.70;40.80;;;;;;;9.87;100.00;101598.34;5081580;28;20369;-80
2022/05/05 04:10:28;;;;;;;44.35;41.38;;;;;;;10.08;100.00;101597.66;5087729;28;20109;-80
2022/05/05 04:12:58;;;;;;;42.03;38.22;;;;;;;10.08;100.00;101601.13;5091308;28;20052;-81
2022/05/05 04:15:26;;;;;;;39.78;36.88;;;;;;;9.94;100.00;101598.44;5078493;28;20106;-79
2022/05/05 04:17:55;;;;;;;40.72;37.80;;;;;;;10.20;100.00;101600.69;5079906;28;20105;-79
2022/05/05 04:20:21;;;;;;;44.88;41.65;;;;;;;9.94;100.00;101595.81;5079311;28;20105;-79
2022/05/05 04:22:49;;;;;;;43.65;40.55;;;;;;;10.21;100.00;101597.03;5077741;28;20048;-81
2022/05/05 04:25:17;;;;;;;40.80;38.10;;;;;;;10.20;100.00;101593.56;5089877;28;20142;-80
2022/05/05 04:27:51;;;;;;;46.97;43.35;;;;;;;10.37;100.00;101607.50;5084017;28;20483;-80
2022/05/05 04:30:40;;;;;;;43.30;39.92;;;;;;;10.39;100.00;101609.97;5086543;28;20185;-80
2022/05/05 04:33:07;;;;;;;39.28;36.47;;;;;;;10.59;100.00;101611.09;5090683;28;20051;-79
2022/05/05 04:35:46;;;;;;;39.85;37.20;;;;;;;10.59;100.00;101613.75;5092680;28;20549;-81
2022/05/05 04:38:25;;;;;;;45.05;41.95;;;;;;;10.69;100.00;101613.47;5076387;28;20059;-81
2022/05/05 04:41:00;;;;;;;49.47;46.38;;;;;;;10.73;100.00;101607.56;5086907;28;20055;-80
2022/05/05 04:43:29;;;;;;;45.63;42.70;;;;;;;11.02;100.00;101607.72;5081841;28;20700;-80
2022/05/05 04:45:57;;;;;;;41.03;38.38;;;;;;;11.03;100.00;101607.53;5090144;28;20081;-84
2022/05/05 04:48:26;;;;;;;47.70;44.70;;;;;;;10.92;100.00;101610.66;5090079;28;20048;-81
2022/05/05 04:50:53;;;;;;;40.45;37.72;;;;;;;11.09;100.00;101612.09;5087441;28;20055;-80
2022/05/05 04:53:21;;;;;;;39.95;36.80;;;;;;;10.96;100.00;101610.09;5073500;28;20053;-81
2022/05/05 04:55:48;;;;;;;41.08;37.92;;;;;;;10.98;100.00;101613.41;5077130;28;20047;-80
2022/05/05 04:58:15;;;;;;;41.10;38.28;;;;;;;10.92;100.00;101611.50;5088087;28;20040;-81
2022/05/05 05:00:42;;;;;;;42.78;39.83;;;;;;;11.08;100.00;101615.78;5088326;28;20109;-80
2022/05/05 05:03:32;;;;;;;41.25;38.47;;;;;;;11.03;100.00;101614.69;5089950;28;20045;-79
2022/05/05 05:05:57;;;;;;;43.13;39.95;;;;;;;11.37;100.00;101622.00;5078282;28;20102;-80
2022/05/05 05:08:24;;;;;;;40.65;37.75;;;;;;;11.29;100.00;101622.97;5085007;28;20101;-80
2022/05/05 05:10:50;;;;;;;38.08;35.50;;;;;;;11.23;100.00;101619.22;5077137;28;20044;-80
2022/05/05 05:13:17;;;;;;;42.08;38.55;;;;;;;11.47;100.00;101625.19;5080951;28;20066;-79
2022/05/05 05:15:44;;;;;;;42.58;39.60;;;;;;;11.51;100.00;101626.44;5083315;28;20044;-79
2022/05/05 05:18:13;;;;;;;43.08;40.38;;;;;;;11.57;100.00;101620.38;5084450;28;20039;-80
2022/05/05 05:20:40;;;;;;;49.15;45.72;;;;;;;11.73;100.00;101623.78;5083757;28;20397;-79
2022/05/05 05:23:07;;;;;;;45.53;42.55;;;;;;;11.53;100.00;101632.41;5090540;28;20109;-82
2022/05/05 05:25:34;;;;;;;49.25;45.75;;;;;;;11.74;100.00;101634.25;5083404;28;20052;-78
2022/05/05 05:28:01;;;;;;;48.05;44.33;;;;;;;11.85;100.00;101638.25;5078980;28;20113;-79
2022/05/05 05:30:28;;;;;;;41.33;38.58;;;;;;;11.79;100.00;101644.31;5084346;28;20706;-79
2022/05/05 05:32:56;;;;;;;43.35;40.35;;;;;;;11.70;100.00;101646.28;5087485;28;20052;-79
2022/05/05 05:35:24;;;;;;;50.50;46.88;;;;;;;11.86;100.00;101650.53;5091293;28;20044;-80
2022/05/05 05:37:52;;;;;;;47.00;43.88;;;;;;;12.17;100.00;101647.53;5088199;28;20105;-81
2022/05/05 05:40:18;;;;;;;43.90;41.05;;;;;;;12.14;100.00;101648.72;5086216;28;20079;-79
2022/05/05 05:42:45;;;;;;;53.40;49.97;;;;;;;12.57;100.00;101658.44;5082774;28;20440;-79
2022/05/05 05:45:13;;;;;;;47.47;44.47;;;;;;;12.65;100.00;101663.63;5080494;28;20057;-80
2022/05/05 05:47:40;;;;;;;43.95;40.70;;;;;;;12.70;100.00;101663.84;5081647;28;20056;-79
2022/05/05 05:50:07;;;;;;;44.28;41.33;;;;;;;12.96;100.00;101662.34;5079744;28;20045;-79
2022/05/05 05:52:35;;;;;;;42.63;39.75;;;;;;;13.09;100.00;101664.22;5074081;28;20051;-80
2022/05/05 05:55:04;;;;;;;40.85;38.15;;;;;;;13.06;100.00;101668.13;5078110;28;20051;-79
2022/05/05 05:57:31;;;;;;;41.22;38.03;;;;;;;12.82;100.00;101666.78;5085120;28;20075;-79
2022/05/05 05:59:58;;;;;;;39.85;36.38;;;;;;;12.91;100.00;101667.44;5085040;28;20464;-79
2022/05/05 06:05:07;;;;;;;43.78;40.35;;;;;;;13.89;100.00;101668.75;5048073;28;20081;-81
2022/05/05 06:07:36;;;;;;;43.78;40.25;;;;;;;13.43;100.00;101674.81;5089506;28;20076;-80
2022/05/05 06:10:05;;;;;;;43.45;39.97;;;;;;;13.71;100.00;101663.19;5086710;28;20040;-79
2022/05/05 06:12:33;;;;;;;47.88;44.20;;;;;;;14.10;100.00;101661.53;5095990;28;20044;-80
2022/05/05 06:15:00;;;;;;;46.70;43.22;;;;;;;13.79;100.00;101675.50;5096619;28;20059;-81
2022/05/05 06:17:28;;;;;;;47.83;44.40;;;;;;;14.31;100.00;101677.38;5084668;28;20114;-81
2022/05/05 06:19:58;;;;;;;47.08;43.65;;;;;;;14.56;100.00;101679.44;5078602;28;20056;-83
2022/05/05 06:22:37;;;;;;;40.83;37.78;;;;;;;14.66;100.00;101680.63;5091417;28;20052;-83
2022/05/05 06:25:15;;;;;;;40.25;37.45;;;;;;;14.67;100.00;101676.09;5093163;28;20392;-83
2022/05/05 06:27:50;;;;;;;39.58;36.40;;;;;;;14.77;100.00;101681.03;5096463;28;20422;-83
2022/05/05 06:30:18;;;;;;;39.30;36.30;;;;;;;14.70;100.00;101672.19;5094912;28;20055;-82
2022/05/05 06:32:46;;;;;;;44.25;40.88;;;;;;;14.88;100.00;101672.34;5086306;28;20131;-83
2022/05/05 06:35:13;;;;;;;42.55;38.05;;;;;;;15.04;100.00;101682.59;5092001;28;20057;-84
2022/05/05 06:37:42;;;;;;;40.78;37.13;;;;;;;15.08;100.00;101678.44;5081624;28;20052;-83
2022/05/05 06:40:09;;;;;;;43.67;40.28;;;;;;;15.33;100.00;101678.50;5082847;28;20040;-84
2022/05/05 06:42:36;;;;;;;41.42;38.50;;;;;;;15.14;100.00;101682.13;5083202;28;20059;-84
2022/05/05 06:45:03;;;;;;;42.13;39.05;;;;;;;15.29;100.00;101684.53;5087958;28;20048;-83
2022/05/05 06:47:30;;;;;;;43.30;39.75;;;;;;;15.49;100.00;101684.41;5089351;28;20428;-84
2022/05/05 06:49:57;;;;;;;42.67;39.42;;;;;;;15.64;100.00;101689.47;5087183;28;20048;-83
2022/05/05 06:52:24;;;;;;;41.40;38.33;;;;;;;15.83;100.00;101685.88;5083594;28;20533;-83
2022/05/05 06:54:52;;;;;;;41.65;38.55;;;;;;;16.18;100.00;101691.56;5079678;28;20469;-84
2022/05/05 06:57:24;;;;;;;40.75;37.85;;;;;;;16.22;100.00;101684.75;5083637;28;20137;-84
2022/05/05 06:59:51;;;;;;;41.78;38.70;;;;;;;16.57;100.00;101694.91;5094216;28;20067;-83
2022/05/05 07:02:18;;;;;;;37.70;35.03;;;;;;;16.83;100.00;101685.00;5086293;28;20117;-84
2022/05/05 07:07:36;;;;;;;34.47;32.05;;;;;;;16.97;100.00;101697.19;5084092;28;20145;-82
2022/05/05 07:12:52;;;;;;;37.45;34.85;;;;;;;16.69;100.00;101686.94;5092342;28;20063;-82
2022/05/05 07:15:19;;;;;;;34.13;31.75;;;;;;;16.94;100.00;101686.91;5090635;28;20108;-82
2022/05/05 07:18:05;;;;;;;35.03;32.58;;;;;;;17.27;100.00;101689.16;5088973;28;20078;-85
2022/05/05 07:20:34;;;;;;;35.35;32.88;;;;;;;17.71;100.00;101691.69;5092917;28;20131;-83
2022/05/05 07:23:11;;;;;;;34.85;32.50;;;;;;;17.87;100.00;101687.53;5086401;28;20047;-83
2022/05/05 07:25:46;;;;;;;36.10;33.50;;;;;;;18.19;100.00;101694.25;5095478;28;20047;-85
2022/05/05 07:28:21;;;;;;;36.45;34.05;;;;;;;17.97;100.00;101690.47;5095626;28;20067;-85
2022/05/05 07:31:23;;;;;;;36.47;33.97;;;;;;;18.07;100.00;101698.78;5095234;28;20040;-85
2022/05/05 07:33:57;;;;;;;35.28;32.88;;;;;;;18.36;100.00;101704.28;5087093;28;20109;-83
2022/05/05 07:36:35;;;;;;;36.28;33.53;;;;;;;18.48;100.00;101697.03;5095400;28;20047;-83
2022/05/05 07:39:09;;;;;;;36.15;33.60;;;;;;;18.56;100.00;101696.69;5086768;28;20108;-84
2022/05/05 07:41:38;;;;;;;35.63;33.17;;;;;;;18.42;100.00;101700.66;5095186;28;20040;-84
2022/05/05 07:44:06;;;;;;;34.13;31.77;;;;;;;18.82;100.00;101702.63;5095274;28;20048;-85
2022/05/05 07:46:39;;;;;;;34.45;31.88;;;;;;;18.34;100.00;101715.28;5095452;28;20472;-86
2022/05/05 07:49:25;;;;;;;35.75;33.20;;;;;;;18.85;100.00;101703.00;5095092;28;20078;-85
2022/05/05 07:51:59;;;;;;;37.08;34.47;;;;;;;19.16;100.00;101714.41;5094611;28;20475;-83
2022/05/05 07:54:38;;;;;;;35.10;32.85;;;;;;;19.66;100.00;101717.25;5083443;28;20113;-83
2022/05/05 07:57:10;;;;;;;33.63;31.58;;;;;;;19.75;95.44;101719.56;5080088;28;20049;-84
2022/05/05 07:59:39;;;;;;;33.37;30.93;;;;;;;19.39;93.71;101718.88;5089174;28;20056;-83
2022/05/05 08:02:13;;;;;;;34.53;32.13;;;;;;;19.45;92.70;101712.50;5090255;28;20056;-84
2022/05/05 08:04:45;;;;;;;33.95;31.55;;;;;;;19.65;90.58;101718.31;5094823;28;20059;-82
2022/05/05 08:07:18;;;;;;;35.40;33.05;;;;;;;19.33;76.60;101722.53;5076834;28;20048;-83
2022/05/05 08:09:46;;;;;;;33.35;30.75;;;;;;;19.45;77.13;101720.59;5075692;28;20052;-83
2022/05/05 08:12:15;;;;;;;31.90;29.90;;;;;;;19.29;81.00;101716.00;5088504;28;20056;-83
2022/05/05 08:14:43;;;;;;;32.78;30.48;;;;;;;19.59;81.41;101727.34;5074388;28;20058;-82
2022/05/05 08:17:18;;;;;;;39.42;36.60;;;;;;;19.57;86.18;101724.06;5085418;28;20528;-83
2022/05/05 08:19:55;;;;;;;33.60;31.42;;;;;;;19.51;76.40;101727.72;5094818;28;20116;-83
2022/05/05 08:22:23;;;;;;;36.08;33.40;;;;;;;19.34;80.43;101734.94;5077151;28;20109;-82
2022/05/05 08:30:32;;;;;;;35.13;32.65;;;;;;;19.35;83.49;101725.81;5084831;28;20105;-83
2022/05/05 08:32:59;;;;;;;54.70;49.60;;;;;;;19.79;73.58;101732.31;5086917;28;20044;-81
2022/05/05 08:35:28;;;;;;;33.65;31.60;;;;;;;19.79;72.20;101735.00;5094186;28;20044;-82
2022/05/05 08:37:58;;;;;;;272.23;169.70;;;;;;;19.36;73.09;101732.81;5082206;28;20080;-82
2022/05/05 08:40:30;;;;;;;36.50;34.05;;;;;;;19.64;72.48;101734.72;5083950;28;20114;-83
2022/05/05 08:43:04;;;;;;;36.25;34.05;;;;;;;19.77;64.11;101730.91;5075215;28;20037;-84
2022/05/05 08:45:34;;;;;;;33.55;31.60;;;;;;;20.02;67.19;101728.66;5079999;28;20052;-82
2022/05/05 08:48:06;;;;;;;34.08;32.05;;;;;;;20.08;67.56;101737.66;5087341;28;20086;-82
2022/05/05 08:50:36;;;;;;;;;;;;;;;20.45;70.08;101737.13;5094469;28;20142;-81
2022/05/05 08:53:05;;;;;;;32.88;30.67;;;;;;;20.06;77.31;101747.84;5093473;28;19928;-82
2022/05/05 08:55:37;;;;;;;31.85;29.85;;;;;;;19.94;73.81;101739.84;5092830;28;20050;-83
2022/05/05 08:58:08;;;;;;;32.97;31.10;;;;;;;20.02;74.97;101735.94;5092452;28;20498;-84
2022/05/05 09:00:35;;;;;;;32.00;30.17;;;;;;;19.64;78.38;101738.25;5093599;28;20527;-84
2022/05/05 09:03:08;;;;;;;33.78;31.77;;;;;;;18.99;82.02;101727.78;5089213;28;20447;-83
2022/05/05 09:05:51;;;;;;;32.15;30.08;;;;;;;19.85;77.92;101735.94;5084871;28;20091;-83
2022/05/05 09:08:28;;;;;;;;;;;;;;;20.53;70.28;101731.34;5090462;28;20123;-82
2022/05/05 09:10:58;;;;;;;39.55;36.38;;;;;;;20.35;67.75;101735.09;5087729;28;19920;-82
2022/05/05 09:13:27;;;;;;;35.70;33.35;;;;;;;19.13;79.46;101731.84;5081804;28;20045;-84
2022/05/05 09:15:57;;;;;;;37.83;35.15;;;;;;;20.20;71.23;101734.88;5086911;28;20082;-83
2022/05/05 09:18:30;;;;;;;36.92;34.65;;;;;;;20.36;67.70;101734.03;5088811;28;20044;-84
2022/05/05 09:20:58;;;;;;;33.72;31.73;;;;;;;20.78;66.83;101726.31;5088714;28;20040;-84
2022/05/05 09:23:36;;;;;;;31.20;29.38;;;;;;;21.13;67.84;101732.44;5086193;28;20044;-84
2022/05/05 09:26:05;;;;;;;34.63;32.25;;;;;;;20.98;62.12;101727.66;5082195;28;20044;-85
2022/05/05 09:28:38;;;;;;;42.30;38.67;;;;;;;20.62;63.40;101724.47;5076680;28;20480;-81
2022/05/05 09:31:09;;;;;;;35.92;33.35;;;;;;;20.10;69.28;101730.13;5081390;28;20044;-83
2022/05/05 09:33:42;;;;;;;37.85;34.97;;;;;;;20.40;61.87;101726.28;5082956;28;20041;-84
2022/05/05 09:36:13;;;;;;;;;;;;;;;20.21;65.15;101729.25;5083109;28;20052;-83
2022/05/05 09:38:53;;;;;;;44.13;39.38;;;;;;;20.28;63.42;101721.78;5083152;28;19932;-84
2022/05/05 09:41:22;;;;;;;33.97;31.65;;;;;;;20.21;62.07;101725.72;5088641;28;20132;-83
2022/05/05 09:43:53;;;;;;;33.45;31.10;;;;;;;20.34;63.07;101731.59;5085848;28;20053;-83
2022/05/05 09:46:33;;;;;;;32.47;30.27;;;;;;;20.25;66.83;101724.16;5081120;28;20544;-83
2022/05/05 09:49:16;;;;;;;29.88;27.98;;;;;;;21.10;58.01;101708.63;5089217;28;20044;-83
2022/05/05 09:51:45;;;;;;;279.67;139.82;;;;;;;21.19;55.24;101721.41;5090374;28;20048;-84
2022/05/05 10:00:09;;;;;;;33.33;31.00;;;;;;;21.16;53.70;101715.72;5086038;28;20132;-84
2022/05/05 10:05:26;;;;;;;35.65;33.35;;;;;;;21.21;53.68;101713.88;5005104;28;20065;-82
2022/05/05 10:07:56;;;;;;;31.13;29.23;;;;;;;21.49;54.88;101712.06;5007407;28;20042;-83
2022/05/05 10:10:25;;;;;;;32.42;30.42;;;;;;;22.03;53.64;101717.41;5001540;28;20108;-84
2022/05/05 10:12:54;;;;;;;33.88;31.88;;;;;;;21.27;50.30;101714.75;5000202;28;20161;-83
2022/05/05 10:15:30;;;;;;;33.30;31.30;;;;;;;22.04;51.93;101713.63;5011609;28;20076;-83
2022/05/05 10:17:57;;;;;;;38.60;35.70;;;;;;;21.38;50.48;101715.72;5088500;28;20116;-81
2022/05/05 10:20:28;;;;;;;33.90;31.73;;;;;;;21.38;49.83;101713.81;5082134;28;20057;-83
2022/05/05 10:23:05;;;;;;;33.58;31.50;;;;;;;20.73;51.99;101722.75;5086362;28;20072;-82
2022/05/05 10:25:42;;;;;;;33.35;31.42;;;;;;;20.59;51.27;101716.88;5086935;28;20048;-83
2022/05/05 10:28:47;;;;;;;33.58;31.50;;;;;;;20.92;50.19;101715.97;5087656;28;20051;-83
2022/05/05 10:31:48;;;;;;;36.63;34.58;;;;;;;21.29;48.03;101715.31;5082803;28;20109;-83
2022/05/05 10:34:21;;;;;;;34.90;32.92;;;;;;;21.00;45.99;101718.22;5081558;28;20392;-83
2022/05/05 10:37:17;;;;;;;35.63;33.30;;;;;;;21.15;52.56;101705.97;5082122;28;20044;-83
2022/05/05 10:40:01;;;;;;;34.30;32.40;;;;;;;21.27;48.46;101706.63;5074469;28;20062;-83
2022/05/05 10:42:51;;;;;;;32.08;30.17;;;;;;;21.80;45.47;101710.44;5088671;28;20056;-83
2022/05/05 10:45:23;;;;;;;34.08;31.73;;;;;;;20.90;55.46;101719.97;5086459;28;20082;-85
2022/05/05 10:48:30;;;;;;;33.90;32.00;;;;;;;21.33;54.36;101708.34;5084881;28;20041;-84
2022/05/05 10:51:12;;;;;;;32.97;31.02;;;;;;;21.96;50.60;101708.69;5089392;28;20145;-83
2022/05/05 10:53:45;;;;;;;32.58;30.77;;;;;;;22.22;47.82;101715.16;5084352;28;20052;-83
2022/05/05 10:56:30;;;;;;;32.90;30.98;;;;;;;22.31;50.98;101720.88;5084842;28;20543;-85
2022/05/05 10:59:14;;;;;;;34.58;32.60;;;;;;;22.10;48.94;101715.28;5080031;28;20471;-84
2022/05/05 11:02:01;;;;;;;31.20;29.38;;;;;;;22.20;45.59;101713.75;5081581;28;20047;-84
2022/05/05 11:04:32;;;;;;;33.42;31.20;;;;;;;22.10;44.58;101720.69;5088982;28;20044;-84
2022/05/05 11:07:30;;;;;;;36.63;34.28;;;;;;;22.69;43.12;101713.53;5091427;28;20480;-83
2022/05/05 11:10:01;;;;;;;34.92;32.72;;;;;;;23.22;42.16;101709.72;5081500;28;20072;-82
2022/05/05 11:12:32;;;;;;;35.28;33.17;;;;;;;;;;5083366;28;20047;-86
2022/05/05 11:23:45;;;;;;;31.40;29.60;;;;;;;23.19;47.49;101704.00;5084031;28;20051;-84
2022/05/05 11:26:20;;;;;;;33.72;31.63;;;;;;;22.41;46.62;101716.34;5090618;28;20044;-84
2022/05/05 11:28:48;;;;;;;33.80;31.58;;;;;;;22.96;48.32;101703.38;5086399;28;20052;-83
2022/05/05 11:31:22;;;;;;;33.45;31.45;;;;;;;23.49;46.13;101705.97;5086026;28;20052;-85
2022/05/05 11:33:54;;;;;;;31.40;29.60;;;;;;;22.96;49.32;101705.28;5085612;28;20373;-83
2022/05/05 11:36:33;;;;;;;33.90;31.70;;;;;;;19.86;62.03;101708.72;5083781;28;20044;-82
2022/05/05 11:39:00;;;;;;;33.58;31.48;;;;;;;22.18;47.34;101716.75;5087183;28;20440;-83
2022/05/05 11:41:29;;;;;;;32.53;30.42;;;;;;;22.78;44.68;101706.53;5088049;28;20055;-83
2022/05/05 11:46:45;;;;;;;31.77;29.67;;;;;;;22.64;45.25;101701.59;5082224;28;20101;-84
2022/05/05 11:49:18;;;;;;;31.85;29.83;;;;;;;22.42;44.04;101706.31;5085921;28;20056;-83
2022/05/05 11:51:49;;;;;;;31.77;29.92;;;;;;;22.74;40.84;101689.19;5087448;28;20052;-82
2022/05/05 11:54:24;;;;;;;32.27;30.27;;;;;;;23.36;39.47;101699.19;5086467;28;20472;-83
2022/05/05 11:56:53;;;;;;;30.90;28.77;;;;;;;23.38;42.03;101693.47;5086201;28;20457;-83
2022/05/05 12:02:11;;;;;;;31.83;29.67;;;;;;;22.92;43.21;101688.72;5087399;28;20101;-82
2022/05/05 12:04:47;;;;;;;31.30;29.10;;;;;;;23.85;42.85;101687.06;5088412;28;20134;-83
2022/05/05 12:07:21;;;;;;;31.13;29.23;;;;;;;22.11;49.09;101695.28;5087652;28;20048;-83
2022/05/05 12:09:50;;;;;;;32.13;29.90;;;;;;;22.64;43.76;101696.19;5084054;28;20174;-84
2022/05/05 12:12:20;;;;;;;32.45;30.25;;;;;;;22.47;42.27;101689.31;5078191;28;20076;-84
2022/05/05 12:14:53;;;;;;;30.27;28.27;;;;;;;23.00;43.47;101692.84;5086260;28;20056;-84
2022/05/05 12:17:24;;;;;;;;;;;;;;;22.95;42.63;101688.22;5086542;28;20055;-83
2022/05/05 12:19:56;;;;;;;31.52;29.10;;;;;;;22.03;47.25;101687.66;5086599;28;19928;-84
2022/05/05 12:22:34;;;;;;;29.48;27.55;;;;;;;23.16;44.99;101680.16;5090055;28;20450;-83
2022/05/05 12:25:06;;;;;;;30.77;28.77;;;;;;;23.48;38.73;101680.78;5082404;28;20052;-84
2022/05/05 12:27:35;;;;;;;;;;;;;;;23.74;42.15;101676.19;5085399;28;20489;-84